createdAt,value
2018-05-08T00:02:18.173Z,98990
2018-05-08T00:04:47.997Z,98992
2018-05-08T00:07:18.560Z,98991
2018-05-08T00:09:49.007Z,98986
2018-05-08T00:12:19.423Z,98981
2018-05-08T00:14:49.959Z,98979
2018-05-08T00:17:20.569Z,98974
2018-05-08T00:19:50.953Z,98972
2018-05-08T00:22:21.432Z,98960
2018-05-08T00:24:51.505Z,98964
2018-05-08T00:27:21.810Z,98958
2018-05-08T00:29:52.745Z,98952
2018-05-08T00:32:23.063Z,98950
2018-05-08T00:34:53.327Z,98954
2018-05-08T00:37:23.496Z,98951
2018-05-08T00:39:53.971Z,98960
2018-05-08T00:42:24.400Z,98965
2018-05-08T00:44:54.904Z,98957
2018-05-08T00:47:25.303Z,98948
2018-05-08T00:49:55.603Z,98950
2018-05-08T00:52:25.713Z,98944
2018-05-08T00:55:07.926Z,98942
2018-05-08T00:57:38.514Z,98933
2018-05-08T01:00:08.861Z,98931
2018-05-08T01:02:39.342Z,98926
2018-05-08T01:05:09.931Z,98934
2018-05-08T01:07:39.767Z,98932
2018-05-08T01:10:10.033Z,98936
2018-05-08T01:12:40.299Z,98938
2018-05-08T01:15:10.935Z,98937
2018-05-08T01:17:40.737Z,98935
2018-05-08T01:20:11.065Z,98939
2018-05-08T01:22:41.655Z,98936
2018-05-08T01:25:12.217Z,98929
2018-05-08T01:27:42.548Z,98935
2018-05-08T01:30:13.277Z,98934
2018-05-08T01:32:43.140Z,98929
2018-05-08T01:35:13.638Z,98926
2018-05-08T01:37:43.464Z,98920
2018-05-08T01:40:13.765Z,98922
2018-05-08T01:42:44.244Z,98925
2018-05-08T01:45:14.684Z,98921
2018-05-08T01:47:45.158Z,98922
2018-05-08T01:50:15.523Z,98916
2018-05-08T01:52:45.890Z,98917
2018-05-08T01:55:16.034Z,98912
2018-05-08T01:57:46.501Z,98907
2018-05-08T02:00:16.887Z,98909
2018-05-08T02:02:47.273Z,98911
2018-05-08T02:05:17.348Z,98901
2018-05-08T02:07:48.007Z,98898
2018-05-08T02:10:18.476Z,98898
2018-05-08T02:12:48.873Z,98900
2018-05-08T02:15:19.019Z,98900
2018-05-08T02:17:49.329Z,98903
2018-05-08T02:20:19.940Z,98901
2018-05-08T02:22:50.186Z,98909
2018-05-08T02:25:19.948Z,98904
2018-05-08T02:27:50.609Z,98894
2018-05-08T02:30:20.934Z,98890
2018-05-08T02:32:51.253Z,98890
2018-05-08T02:35:21.675Z,98888
2018-05-08T02:37:51.960Z,98889
2018-05-08T02:40:22.424Z,98891
2018-05-08T02:42:52.603Z,98888
2018-05-08T02:45:22.820Z,98888
2018-05-08T02:47:53.599Z,98887
2018-05-08T02:50:23.916Z,98884
2018-05-08T02:52:54.353Z,98886
2018-05-08T02:55:37.185Z,98887
2018-05-08T02:58:19.760Z,98890
2018-05-08T03:00:50.268Z,98890
2018-05-08T03:03:20.763Z,98891
2018-05-08T03:05:51.349Z,98896
2018-05-08T03:08:21.710Z,98894
2018-05-08T03:10:52.213Z,98895
2018-05-08T03:13:22.889Z,98890
2018-05-08T03:15:53.221Z,98891
2018-05-08T03:18:23.912Z,98895
2018-05-08T03:20:54.262Z,98894
2018-05-08T03:23:24.514Z,98898
2018-05-08T03:25:54.805Z,98896
2018-05-08T03:28:24.968Z,98894
2018-05-08T03:30:55.287Z,98903
2018-05-08T03:33:26.121Z,98904
2018-05-08T03:35:56.386Z,98902
2018-05-08T03:38:26.797Z,98900
2018-05-08T03:40:57.245Z,98901
2018-05-08T03:43:27.776Z,98908
2018-05-08T03:45:57.893Z,98906
2018-05-08T03:48:28.203Z,98912
2018-05-08T03:50:58.615Z,98911
2018-05-08T03:53:28.337Z,98911
2018-05-08T03:55:58.049Z,98909
2018-05-08T03:58:27.891Z,98910
2018-05-08T04:01:09.262Z,98910
2018-05-08T04:03:50.782Z,98914
2018-05-08T04:06:56.029Z,98912
2018-05-08T04:09:25.745Z,98913
2018-05-08T04:11:55.518Z,98918
2018-05-08T04:14:25.264Z,98920
2018-05-08T04:16:55.000Z,98922
2018-05-08T04:19:24.755Z,98928
2018-05-08T04:21:54.471Z,98930
2018-05-08T04:24:24.210Z,98927
2018-05-08T04:26:53.965Z,98925
2018-05-08T04:29:23.679Z,98918
2018-05-08T04:31:53.409Z,98921
2018-05-08T04:34:23.124Z,98921
2018-05-08T04:36:52.929Z,98925
2018-05-08T04:39:22.653Z,98922
2018-05-08T04:41:52.385Z,98928
2018-05-08T04:44:22.135Z,98920
2018-05-08T04:46:51.854Z,98915
2018-05-08T04:49:21.606Z,98923
2018-05-08T04:51:51.312Z,98924
2018-05-08T04:54:21.093Z,98928
2018-05-08T04:56:50.841Z,98925
2018-05-08T04:59:20.561Z,98924
2018-05-08T05:01:50.312Z,98919
2018-05-08T05:04:20.077Z,98911
2018-05-08T05:06:49.785Z,98905
2018-05-08T05:09:19.501Z,98907
2018-05-08T05:11:49.242Z,98907
2018-05-08T05:14:18.975Z,98902
2018-05-08T05:16:48.813Z,98907
2018-05-08T05:19:18.462Z,98908
2018-05-08T05:21:48.266Z,98911
2018-05-08T05:24:17.963Z,98905
2018-05-08T05:26:47.705Z,98900
2018-05-08T05:29:17.458Z,98898
2018-05-08T05:31:47.228Z,98901
2018-05-08T05:34:17.023Z,98897
2018-05-08T05:36:46.733Z,98905
2018-05-08T05:39:16.465Z,98900
2018-05-08T05:41:46.217Z,98902
2018-05-08T05:44:16.140Z,98900
2018-05-08T05:46:45.914Z,98896
2018-05-08T05:49:15.657Z,98891
2018-05-08T05:51:45.436Z,98893
2018-05-08T05:54:16.715Z,98896
2018-05-08T05:56:48.288Z,98891
2018-05-08T05:59:18.038Z,98890
2018-05-08T06:01:47.749Z,98887
2018-05-08T06:04:17.515Z,98882
2018-05-08T06:06:47.259Z,98881
2018-05-08T06:09:16.961Z,98881
2018-05-08T06:11:46.652Z,98875
2018-05-08T06:14:16.421Z,98876
2018-05-08T06:16:46.143Z,98871
2018-05-08T06:19:15.973Z,98875
2018-05-08T06:21:45.722Z,98872
2018-05-08T06:24:15.473Z,98881
2018-05-08T06:26:45.230Z,98873
2018-05-08T06:29:14.956Z,98864
2018-05-08T06:31:44.756Z,98863
2018-05-08T06:34:14.527Z,98854
2018-05-08T06:36:44.268Z,98851
2018-05-08T06:39:14.127Z,98849
2018-05-08T06:41:43.855Z,98849
2018-05-08T06:44:13.605Z,98852
2018-05-08T06:46:43.480Z,98849
2018-05-08T06:49:13.217Z,98849
2018-05-08T06:51:43.001Z,98842
2018-05-08T06:54:12.714Z,98837
2018-05-08T06:56:42.402Z,98840
2018-05-08T06:59:12.125Z,98842
2018-05-08T07:01:41.895Z,98840
2018-05-08T07:04:11.653Z,98842
2018-05-08T07:06:41.390Z,98840
2018-05-08T07:09:11.286Z,98832
2018-05-08T07:11:40.993Z,98823
2018-05-08T07:14:10.756Z,98826
2018-05-08T07:16:40.507Z,98823
2018-05-08T07:19:10.255Z,98823
2018-05-08T07:21:40.034Z,98828
2018-05-08T07:24:09.720Z,98825
2018-05-08T07:26:39.415Z,98825
2018-05-08T07:29:09.169Z,98829
2018-05-08T07:31:38.870Z,98826
2018-05-08T07:34:08.573Z,98826
2018-05-08T07:36:38.261Z,98824
2018-05-08T07:39:07.983Z,98824
2018-05-08T07:41:37.727Z,98823
2018-05-08T07:44:07.424Z,98817
2018-05-08T07:46:37.154Z,98818
2018-05-08T07:49:06.961Z,98825
2018-05-08T07:51:36.690Z,98828
2018-05-08T07:54:06.486Z,98820
2018-05-08T07:56:36.238Z,98813
2018-05-08T07:59:06.024Z,98810
2018-05-08T08:01:35.752Z,98801
2018-05-08T08:04:05.527Z,98803
2018-05-08T08:06:35.331Z,98795
2018-05-08T08:09:05.082Z,98793
2018-05-08T08:11:34.828Z,98793
2018-05-08T08:14:04.554Z,98797
2018-05-08T08:16:34.277Z,98795
2018-05-08T08:19:04.090Z,98790
2018-05-08T08:21:33.875Z,98789
2018-05-08T08:24:03.623Z,98784
2018-05-08T08:26:33.340Z,98778
2018-05-08T08:29:03.057Z,98774
2018-05-08T08:31:32.844Z,98772
2018-05-08T08:34:02.541Z,98768
2018-05-08T08:36:32.239Z,98768
2018-05-08T08:39:02.010Z,98766
2018-05-08T08:41:31.768Z,98767
2018-05-08T08:44:01.540Z,98762
2018-05-08T08:46:31.351Z,98760
2018-05-08T08:49:01.082Z,98754
2018-05-08T08:51:30.814Z,98758
2018-05-08T08:54:00.581Z,98759
2018-05-08T08:56:30.346Z,98758
2018-05-08T08:59:00.080Z,98756
2018-05-08T09:01:29.806Z,98755
2018-05-08T09:03:59.559Z,98749
2018-05-08T09:06:29.262Z,98757
2018-05-08T09:08:59.016Z,98751
2018-05-08T09:11:28.768Z,98754
2018-05-08T09:13:58.567Z,98749
2018-05-08T09:16:28.281Z,98742
2018-05-08T09:18:57.972Z,98736
2018-05-08T09:21:27.747Z,98715
2018-05-08T09:23:57.484Z,98714
2018-05-08T09:26:27.198Z,98713
2018-05-08T09:28:56.933Z,98710
2018-05-08T09:31:26.675Z,98705
2018-05-08T09:33:56.430Z,98695
2018-05-08T09:36:26.165Z,98698
2018-05-08T09:38:55.892Z,98696
2018-05-08T09:41:26.545Z,98696
2018-05-08T09:43:56.949Z,98692
2018-05-08T09:46:27.355Z,98688
2018-05-08T09:51:51.034Z,98681
2018-05-08T09:54:23.345Z,98682
2018-05-08T09:56:53.798Z,98675
2018-05-08T09:59:24.665Z,98679
2018-05-08T10:01:56.093Z,98673
2018-05-08T10:04:28.230Z,98670
2018-05-08T10:06:59.440Z,98656
2018-05-08T10:09:30.080Z,98663
2018-05-08T10:12:00.481Z,98657
2018-05-08T10:14:31.217Z,98659
2018-05-08T10:17:02.626Z,98654
2018-05-08T10:19:32.497Z,98651
2018-05-08T10:22:02.323Z,98651
2018-05-08T10:24:32.048Z,98638
2018-05-08T10:27:01.802Z,98639
2018-05-08T10:29:31.602Z,98628
2018-05-08T10:32:01.321Z,98636
2018-05-08T10:34:31.081Z,98636
2018-05-08T10:37:00.809Z,98635
2018-05-08T10:39:30.491Z,98627
2018-05-08T10:42:00.257Z,98624
2018-05-08T10:44:29.985Z,98620
2018-05-08T10:46:59.706Z,98620
2018-05-08T10:49:29.458Z,98617
2018-05-08T10:51:59.200Z,98620
2018-05-08T10:54:28.959Z,98617
2018-05-08T10:56:58.737Z,98613
2018-05-08T10:59:28.479Z,98609
2018-05-08T11:03:50.106Z,98608
2018-05-08T11:06:20.588Z,98602
2018-05-08T11:08:51.068Z,98597
2018-05-08T11:11:21.551Z,98598
2018-05-08T11:13:51.267Z,98593
2018-05-08T11:16:21.790Z,98582
2018-05-08T11:18:51.576Z,98580
2018-05-08T11:21:22.124Z,98576
2018-05-08T11:23:52.380Z,98571
2018-05-08T11:26:22.639Z,98566
2018-05-08T11:28:53.033Z,98555
2018-05-08T11:31:22.948Z,98554
2018-05-08T11:33:53.369Z,98550
2018-05-08T11:36:23.472Z,98551
2018-05-08T11:38:53.472Z,98551
2018-05-08T11:41:23.657Z,98544
2018-05-08T11:43:54.117Z,98554
2018-05-08T11:46:24.305Z,98548
2018-05-08T11:48:54.748Z,98551
2018-05-08T11:51:24.879Z,98543
2018-05-08T11:53:55.271Z,98541
2018-05-08T11:56:25.633Z,98535
2018-05-08T11:58:56.391Z,98536
2018-05-08T12:01:26.501Z,98527
2018-05-08T12:03:56.997Z,98523
2018-05-08T12:06:27.402Z,98521
2018-05-08T12:08:57.647Z,98516
2018-05-08T12:11:27.983Z,98502
2018-05-08T12:13:58.322Z,98517
2018-05-08T12:16:28.431Z,98517
2018-05-08T12:18:58.670Z,98515
2018-05-08T12:21:28.382Z,98518
2018-05-08T12:23:58.583Z,98521
2018-05-08T12:26:28.879Z,98521
2018-05-08T12:28:59.399Z,98525
2018-05-08T12:31:29.628Z,98517
2018-05-08T12:33:59.540Z,98512
2018-05-08T12:36:29.802Z,98510
2018-05-08T12:38:59.924Z,98507
2018-05-08T12:41:30.691Z,98500
2018-05-08T12:44:01.383Z,98491
2018-05-08T12:46:31.862Z,98491
2018-05-08T12:49:02.603Z,98487
2018-05-08T12:51:32.975Z,98481
2018-05-08T12:54:03.543Z,98486
2018-05-08T12:56:34.120Z,98484
2018-05-08T12:59:04.520Z,98496
2018-05-08T13:01:34.604Z,98485
2018-05-08T13:04:04.785Z,98482
2018-05-08T13:06:35.538Z,98477
2018-05-08T13:09:05.397Z,98465
2018-05-08T13:11:35.572Z,98468
2018-05-08T13:14:06.129Z,98472
2018-05-08T13:16:36.608Z,98466
2018-05-08T13:19:07.547Z,98466
2018-05-08T13:21:37.820Z,98459
2018-05-08T13:27:17.042Z,98448
2018-05-08T13:29:47.669Z,98456
2018-05-08T13:32:17.889Z,98461
2018-05-08T13:34:47.850Z,98454
2018-05-08T13:37:18.890Z,98456
2018-05-08T13:39:49.928Z,98467
2018-05-08T13:42:20.558Z,98464
2018-05-08T13:44:51.609Z,98474
2018-05-08T13:47:22.103Z,98468
2018-05-08T13:49:52.917Z,98464
2018-05-08T13:52:22.779Z,98467
2018-05-08T13:54:52.622Z,98464
2018-05-08T13:57:22.463Z,98452
2018-05-08T13:59:52.324Z,98450
2018-05-08T14:02:22.128Z,98445
2018-05-08T14:04:51.952Z,98448
2018-05-08T14:07:21.866Z,98451
2018-05-08T14:09:51.674Z,98450
2018-05-08T14:12:21.484Z,98445
2018-05-08T14:14:51.301Z,98452
2018-05-08T14:17:21.074Z,98452
2018-05-08T14:19:51.032Z,98447
2018-05-08T14:22:20.837Z,98445
2018-05-08T14:24:50.719Z,98452
2018-05-08T14:27:21.083Z,98457
2018-05-08T14:29:50.892Z,98455
2018-05-08T14:32:20.748Z,98458
2018-05-08T14:34:50.527Z,98458
2018-05-08T14:37:20.289Z,98454
2018-05-08T14:39:50.043Z,98453
2018-05-08T14:42:19.854Z,98453
2018-05-08T14:44:49.667Z,98448
2018-05-08T14:47:19.479Z,98443
2018-05-08T14:49:49.303Z,98440
2018-05-08T14:52:19.212Z,98440
2018-05-08T14:54:49.029Z,98440
2018-05-08T14:57:18.923Z,98441
2018-05-08T14:59:48.708Z,98441
2018-05-08T15:02:18.422Z,98439
2018-05-08T15:04:48.174Z,98441
2018-05-08T15:07:18.094Z,98434
2018-05-08T15:09:47.910Z,98442
2018-05-08T15:12:17.820Z,98439
2018-05-08T15:14:47.582Z,98436
2018-05-08T15:17:17.443Z,98437
2018-05-08T15:19:47.260Z,98440
2018-05-08T15:22:17.073Z,98437
2018-05-08T15:24:46.886Z,98439
2018-05-08T15:27:16.825Z,98442
2018-05-08T15:29:46.680Z,98442
2018-05-08T15:32:16.347Z,98443
2018-05-08T15:34:46.059Z,98445
2018-05-08T15:37:15.781Z,98444
2018-05-08T15:39:45.468Z,98444
2018-05-08T15:42:15.176Z,98447
2018-05-08T15:44:44.890Z,98443
2018-05-08T15:47:14.767Z,98447
2018-05-08T15:49:44.427Z,98451
2018-05-08T15:52:14.223Z,98459
2018-05-08T15:54:43.910Z,98460
2018-05-08T15:57:13.594Z,98462
2018-05-08T15:59:43.355Z,98464
2018-05-08T16:02:13.151Z,98469
2018-05-08T16:04:42.861Z,98469
2018-05-08T16:07:12.545Z,98478
2018-05-08T16:09:42.262Z,98480
2018-05-08T16:12:12.026Z,98485
2018-05-08T16:14:41.725Z,98487
2018-05-08T16:17:11.477Z,98488
2018-05-08T16:19:41.364Z,98490
2018-05-08T16:22:10.933Z,98492
2018-05-08T16:24:40.624Z,98501
2018-05-08T16:27:10.325Z,98498
2018-05-08T16:29:40.015Z,98502
2018-05-08T16:32:09.782Z,98507
2018-05-08T16:34:39.482Z,98517
2018-05-08T16:37:09.179Z,98517
2018-05-08T16:39:38.924Z,98526
2018-05-08T16:42:08.610Z,98532
2018-05-08T16:44:38.307Z,98539
2018-05-08T16:47:08.030Z,98549
2018-05-08T16:49:37.775Z,98556
2018-05-08T16:52:07.474Z,98551
2018-05-08T16:54:37.171Z,98550
2018-05-08T16:57:06.862Z,98558
2018-05-08T16:59:36.610Z,98564
2018-05-08T17:02:06.317Z,98574
2018-05-08T17:04:35.999Z,98579
2018-05-08T17:07:05.776Z,98579
2018-05-08T17:09:35.466Z,98567
2018-05-08T17:12:05.169Z,98566
2018-05-08T17:14:34.898Z,98571
2018-05-08T17:17:04.596Z,98569
2018-05-08T17:19:34.297Z,98568
2018-05-08T17:22:04.095Z,98562
2018-05-08T17:24:33.797Z,98565
2018-05-08T17:27:03.529Z,98561
2018-05-08T17:29:33.236Z,98562
2018-05-08T17:32:02.962Z,98566
2018-05-08T17:34:32.691Z,98572
2018-05-08T17:37:02.377Z,98574
2018-05-08T17:39:32.087Z,98578
2018-05-08T17:42:01.835Z,98581
2018-05-08T17:44:31.531Z,98582
2018-05-08T17:47:01.252Z,98588
2018-05-08T17:49:30.968Z,98596
2018-05-08T17:52:00.720Z,98603
2018-05-08T17:54:30.468Z,98611
2018-05-08T17:57:00.192Z,98614
2018-05-08T17:59:29.917Z,98616
2018-05-08T18:01:59.674Z,98617
2018-05-08T18:04:29.370Z,98627
2018-05-08T18:06:59.090Z,98633
2018-05-08T18:09:28.824Z,98647
2018-05-08T18:11:58.533Z,98655
2018-05-08T18:14:28.223Z,98661
2018-05-08T18:16:57.938Z,98657
2018-05-08T18:19:27.646Z,98658
2018-05-08T18:21:57.372Z,98659
2018-05-08T18:24:27.060Z,98658
2018-05-08T18:26:56.745Z,98654
2018-05-08T18:29:26.462Z,98654
2018-05-08T18:31:56.149Z,98658
2018-05-08T18:34:25.941Z,98656
2018-05-08T18:36:55.665Z,98665
2018-05-08T18:39:25.388Z,98661
2018-05-08T18:41:55.083Z,98662
2018-05-08T18:44:24.778Z,98665
2018-05-08T18:46:54.471Z,98670
2018-05-08T18:49:24.285Z,98675
2018-05-08T18:51:53.980Z,98670
2018-05-08T18:54:23.720Z,98668
2018-05-08T18:56:53.410Z,98669
2018-05-08T18:59:23.130Z,98659
2018-05-08T19:01:52.950Z,98662
2018-05-08T19:04:22.658Z,98662
2018-05-08T19:06:52.385Z,98662
2018-05-08T19:09:22.156Z,98662
2018-05-08T19:11:51.869Z,98659
2018-05-08T19:14:21.644Z,98660
2018-05-08T19:16:51.352Z,98657
2018-05-08T19:19:26.725Z,98656
2018-05-08T19:21:56.421Z,98656
2018-05-08T19:24:31.939Z,98653
2018-05-08T19:27:01.636Z,98658
2018-05-08T19:29:36.919Z,98655
2018-05-08T19:32:06.665Z,98661
2018-05-08T19:34:41.902Z,98668
2018-05-08T19:37:17.165Z,98668
2018-05-08T19:39:46.910Z,98674
2018-05-08T19:42:16.631Z,98677
2018-05-08T19:44:46.385Z,98678
2018-05-08T19:47:16.109Z,98687
2018-05-08T19:49:45.822Z,98691
2018-05-08T19:52:15.557Z,98695
2018-05-08T19:54:45.258Z,98696
2018-05-08T19:57:15.059Z,98695
2018-05-08T19:59:44.791Z,98694
2018-05-08T20:02:14.505Z,98690
2018-05-08T20:04:44.228Z,98687
2018-05-08T20:07:13.911Z,98681
2018-05-08T20:09:43.634Z,98684
2018-05-08T20:12:13.341Z,98690
2018-05-08T20:14:43.276Z,98690
2018-05-08T20:17:13.039Z,98681
2018-05-08T20:19:42.853Z,98673
2018-05-08T20:22:12.544Z,98674
2018-05-08T20:24:42.280Z,98674
2018-05-08T20:27:12.000Z,98676
2018-05-08T20:29:41.729Z,98677
2018-05-08T20:32:11.471Z,98680
2018-05-08T20:34:41.201Z,98676
2018-05-08T20:37:10.982Z,98671
2018-05-08T20:39:40.686Z,98676
2018-05-08T20:42:10.377Z,98674
2018-05-08T20:44:40.100Z,98669
2018-05-08T20:47:09.810Z,98661
2018-05-08T20:49:39.567Z,98654
2018-05-08T20:52:09.282Z,98661
2018-05-08T20:54:39.066Z,98661
2018-05-08T20:57:08.816Z,98658
2018-05-08T20:59:38.532Z,98654
2018-05-08T21:02:08.232Z,98657
2018-05-08T21:04:38.060Z,98659
2018-05-08T21:07:07.753Z,98661
2018-05-08T21:09:37.451Z,98667
2018-05-08T21:12:07.184Z,98663
2018-05-08T21:14:36.880Z,98661
2018-05-08T21:17:06.600Z,98662
2018-05-08T21:19:36.311Z,98659
2018-05-08T21:22:06.016Z,98664
2018-05-08T21:24:35.798Z,98659
2018-05-08T21:27:05.533Z,98658
2018-05-08T21:29:40.869Z,98647
2018-05-08T21:32:10.577Z,98647
2018-05-08T21:34:40.270Z,98644
2018-05-08T21:37:10.001Z,98645
2018-05-08T21:39:39.785Z,98644
2018-05-08T21:42:09.454Z,98644
2018-05-08T21:44:39.181Z,98647
2018-05-08T21:47:08.892Z,98645
2018-05-08T21:49:38.641Z,98645
2018-05-08T21:52:08.361Z,98643
2018-05-08T21:54:38.111Z,98648
2018-05-08T21:57:07.839Z,98649
2018-05-08T21:59:37.517Z,98658
2018-05-08T22:02:07.215Z,98657
2018-05-08T22:04:36.961Z,98658
2018-05-08T22:07:06.661Z,98666
2018-05-08T22:09:36.460Z,98668
2018-05-08T22:12:06.157Z,98666
2018-05-08T22:14:35.866Z,98655
2018-05-08T22:17:05.650Z,98657
2018-05-08T22:19:35.376Z,98645
2018-05-08T22:22:05.085Z,98646
2018-05-08T22:24:34.800Z,98643
2018-05-08T22:27:04.521Z,98639
2018-05-08T22:29:34.238Z,98644
2018-05-08T22:32:03.917Z,98641
2018-05-08T22:34:33.696Z,98638
2018-05-08T22:37:03.445Z,98645
2018-05-08T22:39:33.143Z,98644
2018-05-08T22:42:02.845Z,98644
2018-05-08T22:44:32.567Z,98635
2018-05-08T22:47:02.281Z,98638
2018-05-08T22:49:31.992Z,98629
2018-05-08T22:52:01.727Z,98628
2018-05-08T22:54:32.282Z,98625
2018-05-08T22:57:02.108Z,98627
2018-05-08T22:59:31.893Z,98635
2018-05-08T23:02:02.172Z,98630
2018-05-08T23:04:32.283Z,98631
2018-05-08T23:07:02.659Z,98625
2018-05-08T23:09:32.866Z,98623
2018-05-08T23:12:02.978Z,98628
2018-05-08T23:14:33.180Z,98632
2018-05-08T23:17:03.343Z,98633
2018-05-08T23:19:33.792Z,98632
2018-05-08T23:22:04.169Z,98630
2018-05-08T23:24:34.748Z,98626
2018-05-08T23:27:04.982Z,98625
2018-05-08T23:29:34.942Z,98629
2018-05-08T23:32:05.646Z,98624
2018-05-08T23:34:36.002Z,98630
2018-05-08T23:37:06.217Z,98631
2018-05-08T23:39:36.915Z,98625
2018-05-08T23:42:07.115Z,98616
2018-05-08T23:44:37.582Z,98611
2018-05-08T23:47:07.444Z,98613
2018-05-08T23:49:37.815Z,98626
2018-05-08T23:52:08.219Z,98626
2018-05-08T23:54:38.363Z,98615
2018-05-08T23:57:08.880Z,98615
2018-05-08T23:59:39.505Z,98607
